Time;durP1;ratioP1;P1;durP2;ratioP2;P2;SDS_P1;SDS_P2;PMS_P1;PMS_P2;Temp;Humidity;BMP_temperature;BMP_pressure;BME280_temperature;BME280_humidity;BME280_pressure;Samples;Min_cycle;Max_cycle;Signal;HPM_P1;HPM_P2
2022/07/28 00:01:59;;;;;;;2.60;1.45;;;;;;;;;;5072711;28;20380;-84
2022/07/28 00:04:25;;;;;;;2.75;1.40;;;;;;;;;;5072984;28;20429;-84
2022/07/28 00:06:51;;;;;;;1.70;1.30;;;;;;;;;;5072902;28;20737;-84
2022/07/28 00:09:17;;;;;;;4.05;1.58;;;;;;;;;;5072766;28;20387;-84
2022/07/28 00:11:43;;;;;;;2.30;1.50;;;;;;;;;;5072308;28;20394;-84
2022/07/28 00:14:09;;;;;;;3.95;1.70;;;;;;;;;;5072643;28;20386;-84
2022/07/28 00:16:36;;;;;;;2.47;1.50;;;;;;;;;;5072480;28;20372;-84
2022/07/28 00:19:02;;;;;;;2.25;1.40;;;;;;;;;;5072544;28;20764;-84
2022/07/28 00:21:28;;;;;;;2.05;1.42;;;;;;;;;;5072588;28;20384;-83
2022/07/28 00:23:54;;;;;;;4.05;1.35;;;;;;;;;;5072279;28;20390;-83
2022/07/28 00:26:20;;;;;;;1.23;1.13;;;;;;;;;;5072610;28;20380;-84
2022/07/28 00:28:47;;;;;;;2.53;1.13;;;;;;;;;;5059843;28;20383;-83
2022/07/28 00:31:13;;;;;;;2.28;1.27;;;;;;;;;;5072452;28;20407;-83
2022/07/28 00:33:39;;;;;;;2.00;1.20;;;;;;;;;;5072340;28;20439;-84
2022/07/28 00:36:06;;;;;;;2.90;1.55;;;;;;;;;;5072332;28;20434;-84
2022/07/28 00:38:32;;;;;;;2.03;1.20;;;;;;;;;;5072491;28;20406;-83
2022/07/28 00:41:10;;;;;;;2.35;1.40;;;;;;;;;;5072262;28;20386;-83
2022/07/28 00:43:36;;;;;;;1.20;1.10;;;;;;;;;;5072395;28;20899;-83
2022/07/28 00:46:03;;;;;;;2.58;1.30;;;;;;;;;;5072120;28;20388;-84
2022/07/28 00:48:29;;;;;;;1.30;1.20;;;;;;;;;;5072267;28;20437;-84
2022/07/28 00:50:55;;;;;;;2.15;1.20;;;;;;;;;;5071886;28;20861;-84
2022/07/28 00:53:21;;;;;;;1.55;1.27;;;;;;;;;;5072187;28;20411;-84
2022/07/28 00:55:47;;;;;;;1.75;1.20;;;;;;;;;;5072086;28;20383;-84
2022/07/28 00:58:13;;;;;;;1.60;1.40;;;;;;;;;;5072066;28;20436;-83
2022/07/28 01:00:39;;;;;;;2.20;1.30;;;;;;;;;;5072162;28;20384;-84
2022/07/28 01:03:05;;;;;;;2.10;1.27;;;;;;;;;;5072333;28;20384;-84
2022/07/28 01:05:38;;;;;;;2.53;1.33;;;;;;;;;;5072085;28;20744;-84
2022/07/28 01:08:19;;;;;;;1.95;1.40;;;;;;;;;;5072104;28;20410;-83
2022/07/28 01:10:49;;;;;;;1.48;1.33;;;;;;;;;;5072175;28;20410;-83
2022/07/28 01:13:20;;;;;;;1.80;1.40;;;;;;;;;;5072002;28;20411;-83
2022/07/28 01:15:50;;;;;;;2.70;1.50;;;;;;;;;;5071985;28;20382;-84
2022/07/28 01:18:24;;;;;;;2.38;1.40;;;;;;;;;;5071988;28;20449;-83
2022/07/28 01:20:53;;;;;;;1.70;1.60;;;;;;;;;;5072333;28;20380;-84
2022/07/28 01:23:25;;;;;;;3.00;1.33;;;;;;;;;;5059387;28;20369;-83
2022/07/28 01:25:57;;;;;;;3.80;1.40;;;;;;;;;;5057125;28;20379;-84
2022/07/28 01:28:28;;;;;;;1.55;1.25;;;;;;;;;;5059581;28;20396;-84
2022/07/28 01:30:57;;;;;;;3.08;1.30;;;;;;;;;;5056627;28;20426;-84
2022/07/28 01:33:27;;;;;;;1.83;1.50;;;;;;;;;;5071715;28;20439;-85
2022/07/28 01:35:56;;;;;;;1.60;1.30;;;;;;;;;;5073636;28;20391;-84
2022/07/28 01:38:23;;;;;;;3.50;1.40;;;;;;;;;;5075705;28;20376;-84
2022/07/28 01:40:51;;;;;;;3.20;1.52;;;;;;;;;;5075497;28;20383;-84
2022/07/28 01:43:20;;;;;;;2.33;1.42;;;;;;;;;;5075567;28;20463;-84
2022/07/28 01:45:46;;;;;;;1.80;1.52;;;;;;;;;;5075349;28;20810;-84
2022/07/28 01:48:13;;;;;;;1.30;1.20;;;;;;;;;;5055521;28;20380;-84
2022/07/28 01:50:41;;;;;;;4.07;1.70;;;;;;;;;;5075422;28;20740;-84
2022/07/28 01:53:09;;;;;;;2.20;1.80;;;;;;;;;;5075452;28;20403;-82
2022/07/28 01:55:36;;;;;;;2.53;1.70;;;;;;;;;;5075163;28;20372;-84
2022/07/28 01:58:03;;;;;;;2.70;1.50;;;;;;;;;;5075168;28;20857;-85
2022/07/28 02:00:31;;;;;;;3.00;1.65;;;;;;;;;;5067049;28;20457;-83
2022/07/28 02:02:57;;;;;;;1.92;1.60;;;;;;;;;;5071963;28;20387;-83
2022/07/28 02:05:24;;;;;;;3.33;1.70;;;;;;;;;;5075026;28;20382;-84
2022/07/28 02:07:51;;;;;;;2.22;1.75;;;;;;;;;;5074658;28;20441;-84
2022/07/28 02:10:17;;;;;;;1.92;1.60;;;;;;;;;;5073028;28;20459;-84
2022/07/28 02:12:44;;;;;;;2.17;1.73;;;;;;;;;;5054692;28;20441;-84
2022/07/28 02:15:11;;;;;;;1.60;1.50;;;;;;;;;;5057989;28;20428;-84
2022/07/28 02:17:41;;;;;;;2.40;1.58;;;;;;;;;;5073509;28;20763;-84
2022/07/28 02:20:09;;;;;;;2.40;1.60;;;;;;;;;;5073165;28;20375;-84
2022/07/28 02:22:36;;;;;;;2.38;1.55;;;;;;;;;;5074188;28;20375;-84
2022/07/28 02:25:02;;;;;;;2.10;1.52;;;;;;;;;;5074752;28;20379;-84
2022/07/28 02:27:28;;;;;;;2.92;1.60;;;;;;;;;;5074565;28;20383;-84
2022/07/28 02:30:01;;;;;;;4.27;1.80;;;;;;;;;;5074685;28;20429;-83
2022/07/28 02:32:37;;;;;;;1.95;1.65;;;;;;;;;;5074448;28;20441;-84
2022/07/28 02:35:08;;;;;;;1.90;1.60;;;;;;;;;;5060453;28;20369;-84
2022/07/28 02:37:36;;;;;;;2.90;1.50;;;;;;;;;;5072276;28;20745;-84
2022/07/28 02:40:03;;;;;;;1.75;1.60;;;;;;;;;;5074497;28;20451;-84
2022/07/28 02:42:31;;;;;;;2.23;1.63;;;;;;;;;;5074339;28;20380;-84
2022/07/28 02:45:03;;;;;;;1.92;1.58;;;;;;;;;;5074355;28;20439;-84
2022/07/28 02:47:31;;;;;;;2.85;1.80;;;;;;;;;;5074085;28;20541;-84
2022/07/28 02:49:58;;;;;;;1.70;1.48;;;;;;;;;;5074286;28;20464;-84
2022/07/28 02:52:25;;;;;;;2.50;1.65;;;;;;;;;;5074226;28;20403;-84
2022/07/28 02:54:51;;;;;;;1.95;1.55;;;;;;;;;;5074192;28;20514;-84
2022/07/28 02:57:18;;;;;;;2.75;1.65;;;;;;;;;;5074114;28;20383;-84
2022/07/28 02:59:44;;;;;;;2.17;1.70;;;;;;;;;;5074054;28;20454;-85
2022/07/28 03:02:11;;;;;;;1.83;1.65;;;;;;;;;;5074233;28;20379;-85
2022/07/28 03:07:23;;;;;;;1.83;1.42;;;;;;;;;;5073876;28;20398;-84
2022/07/28 03:09:49;;;;;;;2.63;1.60;;;;;;;;;;5059767;28;20969;-84
2022/07/28 03:12:15;;;;;;;2.70;1.80;;;;;;;;;;5073855;28;20407;-84
2022/07/28 03:14:41;;;;;;;2.30;1.65;;;;;;;;;;5072213;28;20437;-84
2022/07/28 03:17:07;;;;;;;1.98;1.70;;;;;;;;;;5060743;28;20426;-84
2022/07/28 03:19:33;;;;;;;1.80;1.70;;;;;;;;;;5064182;28;20405;-85
2022/07/28 03:21:59;;;;;;;2.47;1.83;;;;;;;;;;5058037;28;20439;-85
2022/07/28 03:24:27;;;;;;;3.90;1.85;;;;;;;;;;5073561;28;20860;-85
2022/07/28 03:26:55;;;;;;;3.55;1.90;;;;;;;;;;5073341;28;20380;-85
2022/07/28 03:29:22;;;;;;;2.83;1.77;;;;;;;;;;5073651;28;20899;-85
2022/07/28 03:31:49;;;;;;;2.80;1.93;;;;;;;;;;5071343;28;20849;-85
2022/07/28 03:34:15;;;;;;;3.40;1.88;;;;;;;;;;5055994;28;20395;-84
2022/07/28 03:36:43;;;;;;;2.58;1.80;;;;;;;;;;5056374;28;20882;-84
2022/07/28 03:39:10;;;;;;;3.05;1.70;;;;;;;;;;5061519;28;20388;-85
2022/07/28 03:41:36;;;;;;;2.30;2.10;;;;;;;;;;5053597;28;20460;-85
2022/07/28 03:44:02;;;;;;;1.77;1.65;;;;;;;;;;5065888;28;20879;-85
2022/07/28 03:46:29;;;;;;;2.42;1.90;;;;;;;;;;5053497;28;20384;-83
2022/07/28 03:48:55;;;;;;;3.03;1.70;;;;;;;;;;5054571;28;20505;-83
2022/07/28 03:51:21;;;;;;;2.70;2.03;;;;;;;;;;5057173;28;20870;-84
2022/07/28 03:53:48;;;;;;;1.95;1.73;;;;;;;;;;5057183;28;20414;-84
2022/07/28 03:56:14;;;;;;;2.92;2.08;;;;;;;;;;5062348;28;20441;-84
2022/07/28 03:58:40;;;;;;;2.57;1.90;;;;;;;;;;5073034;28;20380;-84
2022/07/28 04:01:06;;;;;;;4.20;2.08;;;;;;;;;;5073305;28;20454;-84
2022/07/28 04:03:32;;;;;;;3.35;1.80;;;;;;;;;;5073084;28;20384;-83
2022/07/28 04:05:58;;;;;;;2.55;2.05;;;;;;;;;;5073254;28;20391;-84
2022/07/28 04:08:24;;;;;;;2.00;1.90;;;;;;;;;;5072751;28;20401;-84
2022/07/28 04:10:52;;;;;;;2.67;2.20;;;;;;;;;;5066858;28;20468;-84
2022/07/28 04:13:19;;;;;;;2.63;2.17;;;;;;;;;;5065664;28;20407;-84
2022/07/28 04:15:45;;;;;;;3.70;2.28;;;;;;;;;;5069171;28;20380;-85
2022/07/28 04:18:11;;;;;;;2.97;2.00;;;;;;;;;;5055232;28;20386;-85
2022/07/28 04:20:37;;;;;;;3.75;2.17;;;;;;;;;;5053958;28;20416;-84
2022/07/28 04:23:03;;;;;;;2.37;2.17;;;;;;;;;;5048151;28;20379;-85
2022/07/28 04:25:29;;;;;;;2.40;2.20;;;;;;;;;;5061397;28;20379;-85
2022/07/28 04:27:55;;;;;;;3.13;2.20;;;;;;;;;;5055123;28;20388;-85
2022/07/28 04:30:23;;;;;;;2.40;2.20;;;;;;;;;;5060674;28;20419;-84
2022/07/28 04:32:50;;;;;;;3.23;2.30;;;;;;;;;;5073184;28;20428;-84
2022/07/28 04:35:17;;;;;;;4.13;2.55;;;;;;;;;;5073043;28;20431;-85
2022/07/28 04:37:43;;;;;;;3.13;2.40;;;;;;;;;;5061626;28;20860;-85
2022/07/28 04:40:10;;;;;;;4.60;2.13;;;;;;;;;;5062934;28;20388;-84
2022/07/28 04:42:37;;;;;;;2.67;2.30;;;;;;;;;;5057500;28;20413;-84
2022/07/28 04:45:04;;;;;;;2.42;2.22;;;;;;;;;;5072988;28;20526;-84
2022/07/28 04:47:30;;;;;;;4.82;2.33;;;;;;;;;;5072860;28;20386;-85
2022/07/28 04:49:57;;;;;;;2.60;2.40;;;;;;;;;;5073222;28;20414;-85
2022/07/28 04:52:24;;;;;;;3.40;2.60;;;;;;;;;;5070432;28;20407;-85
2022/07/28 04:54:50;;;;;;;2.70;2.50;;;;;;;;;;5058202;28;20396;-85
2022/07/28 04:57:16;;;;;;;3.05;2.50;;;;;;;;;;5054158;28;20403;-84
2022/07/28 04:59:42;;;;;;;2.63;2.40;;;;;;;;;;5052857;28;20888;-84
2022/07/28 05:02:08;;;;;;;3.72;2.55;;;;;;;;;;5052239;28;20404;-84
2022/07/28 05:04:35;;;;;;;4.00;2.60;;;;;;;;;;5059604;28;20824;-82
2022/07/28 05:07:01;;;;;;;3.17;2.70;;;;;;;;;;5053817;28;20894;-84
2022/07/28 05:09:27;;;;;;;3.15;2.80;;;;;;;;;;5052222;28;20409;-84
2022/07/28 05:11:53;;;;;;;2.95;2.65;;;;;;;;;;5052337;28;20857;-84
2022/07/28 05:14:19;;;;;;;3.03;2.55;;;;;;;;;;5057456;28;20381;-84
2022/07/28 05:16:45;;;;;;;2.92;2.63;;;;;;;;;;5059188;28;20428;-83
2022/07/28 05:19:11;;;;;;;4.57;2.80;;;;;;;;;;5057553;28;20381;-84
2022/07/28 05:21:37;;;;;;;3.92;2.95;;;;;;;;;;5055645;28;20377;-85
2022/07/28 05:24:03;;;;;;;3.10;2.80;;;;;;;;;;5081597;28;20608;-86
2022/07/28 05:26:31;;;;;;;3.35;3.05;;;;;;;;;;5055651;28;20417;-83
2022/07/28 05:28:57;;;;;;;3.27;2.80;;;;;;;;;;5059427;28;20384;-85
2022/07/28 05:31:23;;;;;;;3.03;2.83;;;;;;;;;;5057186;28;20388;-85
2022/07/28 05:33:49;;;;;;;3.45;3.15;;;;;;;;;;5052463;28;20413;-86
2022/07/28 05:36:15;;;;;;;2.88;2.67;;;;;;;;;;5053292;28;20818;-84
2022/07/28 05:38:41;;;;;;;5.30;3.10;;;;;;;;;;5053828;28;20480;-86
2022/07/28 05:41:06;;;;;;;3.43;3.07;;;;;;;;;;5055077;28;20388;-85
2022/07/28 05:43:36;;;;;;;4.03;3.72;;;;;;;;;;5054472;28;20385;-87
2022/07/28 05:46:03;;;;;;;3.17;2.88;;;;;;;;;;5054531;28;20459;-86
2022/07/28 05:48:29;;;;;;;3.10;2.90;;;;;;;;;;5055132;28;20400;-86
2022/07/28 05:50:55;;;;;;;4.63;3.30;;;;;;;;;;5064818;28;20379;-84
2022/07/28 05:53:21;;;;;;;4.57;3.20;;;;;;;;;;5061973;28;20416;-84
2022/07/28 05:55:47;;;;;;;3.80;3.50;;;;;;;;;;5072657;28;20388;-85
2022/07/28 05:58:13;;;;;;;5.43;3.30;;;;;;;;;;5069029;28;20740;-84
2022/07/28 06:00:39;;;;;;;3.60;3.30;;;;;;;;;;5064811;28;20389;-85
2022/07/28 06:03:06;;;;;;;3.95;3.63;;;;;;;;;;5071951;28;20449;-84
2022/07/28 06:05:32;;;;;;;3.72;3.42;;;;;;;;;;5061747;28;20389;-85
2022/07/28 06:07:59;;;;;;;4.45;3.50;;;;;;;;;;5062964;28;20381;-83
2022/07/28 06:10:26;;;;;;;3.95;3.55;;;;;;;;;;5073820;28;20926;-86
2022/07/28 06:12:56;;;;;;;3.83;3.50;;;;;;;;;;5057182;28;20417;-84
2022/07/28 06:15:24;;;;;;;5.55;3.75;;;;;;;;;;5049568;28;20384;-85
2022/07/28 06:17:54;;;;;;;4.20;3.63;;;;;;;;;;5052851;28;20385;-84
2022/07/28 06:20:21;;;;;;;4.20;3.72;;;;;;;;;;5055899;28;20472;-82
2022/07/28 06:22:51;;;;;;;3.65;3.30;;;;;;;;;;5068841;28;20862;-84
2022/07/28 06:25:20;;;;;;;3.80;3.50;;;;;;;;;;5068279;28;20387;-83
2022/07/28 06:27:47;;;;;;;5.57;3.83;;;;;;;;;;5073442;28;20864;-83
2022/07/28 06:30:13;;;;;;;6.03;3.83;;;;;;;;;;5053148;28;20429;-83
2022/07/28 06:32:39;;;;;;;4.90;4.05;;;;;;;;;;5059193;28;20463;-82
2022/07/28 06:35:05;;;;;;;4.47;4.07;;;;;;;;;;5063221;28;20984;-83
2022/07/28 06:37:31;;;;;;;4.90;4.40;;;;;;;;;;5009758;28;1781060;-83
2022/07/28 06:39:57;;;;;;;5.60;4.53;;;;;;;;;;5064599;28;20773;-83
2022/07/28 06:42:23;;;;;;;5.07;3.87;;;;;;;;;;5071678;28;20403;-83
2022/07/28 06:44:52;;;;;;;6.25;4.35;;;;;;;;;;5046884;28;20388;-83
2022/07/28 06:47:19;;;;;;;6.38;3.90;;;;;;;;;;5074501;28;20852;-83
2022/07/28 06:49:45;;;;;;;4.57;4.10;;;;;;;;;;5074078;28;20383;-83
2022/07/28 06:52:11;;;;;;;7.22;4.65;;;;;;;;;;5070372;28;20412;-83
2022/07/28 06:54:37;;;;;;;4.63;4.18;;;;;;;;;;5073937;28;20374;-81
2022/07/28 06:57:03;;;;;;;5.90;4.38;;;;;;;;;;5073947;28;20372;-80
2022/07/28 06:59:30;;;;;;;4.50;3.97;;;;;;;;;;5074053;28;20375;-82
2022/07/28 07:02:00;;;;;;;7.00;4.38;;;;;;;;;;5058871;28;20438;-81
2022/07/28 07:04:26;;;;;;;4.60;4.20;;;;;;;;;;5053860;28;20385;-81
2022/07/28 07:06:52;;;;;;;6.32;4.25;;;;;;;;;;5062902;28;20382;-81
2022/07/28 07:09:18;;;;;;;4.93;4.30;;;;;;;;;;5053396;28;20377;-80
2022/07/28 07:11:44;;;;;;;5.47;4.00;;;;;;;;;;5062839;28;20378;-83
2022/07/28 07:14:10;;;;;;;4.50;3.88;;;;;;;;;;5072742;28;20490;-83
2022/07/28 07:16:36;;;;;;;4.40;3.83;;;;;;;;;;5063966;28;20797;-83
2022/07/28 07:19:03;;;;;;;4.40;4.00;;;;;;;;;;5073315;28;20372;-84
2022/07/28 07:21:29;;;;;;;5.05;4.05;;;;;;;;;;5049649;28;20731;-85
2022/07/28 07:23:55;;;;;;;7.97;3.80;;;;;;;;;;5068588;28;20382;-84
2022/07/28 07:26:21;;;;;;;4.30;3.78;;;;;;;;;;5073395;28;20434;-84
2022/07/28 07:28:47;;;;;;;4.57;3.83;;;;;;;;;;5073398;28;20746;-84
2022/07/28 07:31:13;;;;;;;4.60;4.15;;;;;;;;;;5073250;28;20384;-85
2022/07/28 07:33:39;;;;;;;4.60;4.20;;;;;;;;;;5061245;28;20409;-84
2022/07/28 07:36:05;;;;;;;4.40;4.00;;;;;;;;;;5063974;28;20426;-84
2022/07/28 07:38:31;;;;;;;5.32;4.55;;;;;;;;;;5073184;28;20863;-85
2022/07/28 07:40:57;;;;;;;4.80;4.40;;;;;;;;;;5073171;28;20380;-83
2022/07/28 07:43:23;;;;;;;5.15;4.32;;;;;;;;;;5073153;28;20380;-84
2022/07/28 07:45:49;;;;;;;4.78;4.38;;;;;;;;;;5073281;28;20728;-84
2022/07/28 07:48:15;;;;;;;5.07;4.10;;;;;;;;;;5068462;28;20388;-84
2022/07/28 07:50:41;;;;;;;5.18;4.43;;;;;;;;;;5061377;28;20398;-84
2022/07/28 07:53:07;;;;;;;5.35;4.85;;;;;;;;;;5072763;28;20399;-84
2022/07/28 07:55:33;;;;;;;4.50;4.10;;;;;;;;;;5072857;28;20733;-84
2022/07/28 07:57:59;;;;;;;5.68;4.70;;;;;;;;;;5072792;28;20404;-84
2022/07/28 08:00:25;;;;;;;5.07;4.57;;;;;;;;;;5072850;28;20781;-85
2022/07/28 08:02:51;;;;;;;5.18;4.53;;;;;;;;;;5071493;28;20472;-84
2022/07/28 08:05:17;;;;;;;5.47;4.97;;;;;;;;;;5072708;28;20383;-84
2022/07/28 08:07:43;;;;;;;4.68;4.28;;;;;;;;;;5072882;28;20459;-84
2022/07/28 08:10:09;;;;;;;4.43;4.03;;;;;;;;;;5069808;28;20420;-85
2022/07/28 08:12:35;;;;;;;5.63;4.70;;;;;;;;;;5061517;28;20472;-84
2022/07/28 08:15:01;;;;;;;5.10;4.50;;;;;;;;;;5072555;28;20380;-84
2022/07/28 08:17:28;;;;;;;4.90;4.50;;;;;;;;;;5072500;28;20403;-84
2022/07/28 08:19:54;;;;;;;5.53;5.03;;;;;;;;;;5072667;28;20417;-84
2022/07/28 08:22:20;;;;;;;5.63;5.05;;;;;;;;;;5072509;28;20412;-84
2022/07/28 08:24:46;;;;;;;5.20;4.80;;;;;;;;;;5072786;28;20384;-84
2022/07/28 08:27:12;;;;;;;5.27;4.53;;;;;;;;;;5072324;28;20493;-84
2022/07/28 08:29:38;;;;;;;5.13;4.68;;;;;;;;;;5072304;28;20391;-84
2022/07/28 08:32:04;;;;;;;5.53;5.07;;;;;;;;;;5058205;28;20846;-85
2022/07/28 08:34:31;;;;;;;5.30;4.80;;;;;;;;;;5072367;28;20376;-84
2022/07/28 08:36:57;;;;;;;4.35;3.95;;;;;;;;;;5072155;28;20760;-84
2022/07/28 08:39:23;;;;;;;4.72;4.25;;;;;;;;;;5072239;28;20493;-84
2022/07/28 08:42:03;;;;;;;5.65;4.60;;;;;;;;;;5060688;28;20854;-84
2022/07/28 08:44:45;;;;;;;4.75;4.30;;;;;;;;;;5067747;28;20864;-85
2022/07/28 08:47:12;;;;;;;6.05;5.40;;;;;;;;;;5072144;28;20444;-84
2022/07/28 08:49:41;;;;;;;4.22;3.80;;;;;;;;;;5070265;28;20408;-85
2022/07/28 08:52:11;;;;;;;6.50;4.53;;;;;;;;;;5052187;28;20381;-85
2022/07/28 08:54:41;;;;;;;5.20;4.70;;;;;;;;;;5050380;28;20385;-85
2022/07/28 08:57:07;;;;;;;5.15;4.25;;;;;;;;;;5071978;28;20801;-85
2022/07/28 08:59:34;;;;;;;5.20;4.43;;;;;;;;;;5072163;28;20470;-84
2022/07/28 09:02:00;;;;;;;4.95;4.50;;;;;;;;;;5066306;28;20437;-85
2022/07/28 09:04:26;;;;;;;5.57;4.70;;;;;;;;;;5063750;28;20380;-85
2022/07/28 09:06:52;;;;;;;6.05;4.88;;;;;;;;;;5071845;28;20375;-85
2022/07/28 09:09:20;;;;;;;5.32;4.82;;;;;;;;;;5072002;28;20391;-84
2022/07/28 09:11:46;;;;;;;5.72;5.20;;;;;;;;;;5071840;28;20448;-85
2022/07/28 09:14:12;;;;;;;5.88;4.63;;;;;;;;;;5071818;28;20900;-85
2022/07/28 09:16:38;;;;;;;5.88;4.78;;;;;;;;;;5058075;28;20389;-85
2022/07/28 09:19:04;;;;;;;5.20;4.70;;;;;;;;;;5072213;28;20419;-85
2022/07/28 09:21:30;;;;;;;5.22;4.72;;;;;;;;;;5071866;28;20372;-85
2022/07/28 09:23:57;;;;;;;7.32;4.95;;;;;;;;;;5070503;28;20399;-84
2022/07/28 09:26:23;;;;;;;4.13;3.83;;;;;;;;;;5071708;28;20429;-85
2022/07/28 09:28:56;;;;;;;4.75;4.25;;;;;;;;;;5061638;28;20385;-85
2022/07/28 09:31:23;;;;;;;4.68;3.80;;;;;;;;;;5071838;28;20392;-85
2022/07/28 09:33:59;;;;;;;4.70;4.10;;;;;;;;;;5071499;28;20400;-85
2022/07/28 09:36:25;;;;;;;3.50;3.20;;;;;;;;;;5071645;28;20475;-85
2022/07/28 09:38:51;;;;;;;3.80;3.38;;;;;;;;;;5071528;28;20509;-85
2022/07/28 09:41:20;;;;;;;4.50;3.08;;;;;;;;;;5057119;28;20523;-85
2022/07/28 09:43:46;;;;;;;4.32;3.90;;;;;;;;;;5051627;28;20474;-85
2022/07/28 09:46:16;;;;;;;4.88;2.92;;;;;;;;;;5067388;28;20460;-85
2022/07/28 09:48:48;;;;;;;3.53;2.60;;;;;;;;;;5071727;28;20383;-85
2022/07/28 09:51:16;;;;;;;4.20;2.75;;;;;;;;;;5071587;28;20388;-85
2022/07/28 09:53:42;;;;;;;3.90;2.90;;;;;;;;;;5063033;28;20393;-84
2022/07/28 09:56:08;;;;;;;3.15;2.83;;;;;;;;;;5046355;28;20385;-85
2022/07/28 09:58:35;;;;;;;3.90;2.67;;;;;;;;;;5074088;28;20418;-85
2022/07/28 10:01:04;;;;;;;3.90;2.28;;;;;;;;;;5075340;28;20756;-86
2022/07/28 10:03:30;;;;;;;4.03;2.40;;;;;;;;;;5075039;28;20383;-85
2022/07/28 10:05:57;;;;;;;3.78;2.80;;;;;;;;;;5075264;28;20777;-86
2022/07/28 10:08:42;;;;;;;5.93;3.30;;;;;;;;;;5074967;28;20414;-86
2022/07/28 10:11:09;;;;;;;3.67;2.33;;;;;;;;;;5074970;28;20372;-87
2022/07/28 10:13:36;;;;;;;4.53;2.30;;;;;;;;;;5057590;28;20898;-85
2022/07/28 10:16:11;;;;;;;2.58;2.35;;;;;;;;;;5064119;28;20380;-85
2022/07/28 10:18:39;;;;;;;3.95;2.20;;;;;;;;;;5075135;28;20364;-85
2022/07/28 10:21:09;;;;;;;3.70;2.22;;;;;;;;;;5075060;28;20388;-85
2022/07/28 10:23:40;;;;;;;3.43;2.60;;;;;;;;;;5057228;28;20703;-84
2022/07/28 10:26:09;;;;;;;2.70;2.45;;;;;;;;;;5050500;28;20397;-85
2022/07/28 10:28:36;;;;;;;3.22;2.40;;;;;;;;;;5069065;28;20388;-85
2022/07/28 10:31:04;;;;;;;3.00;2.10;;;;;;;;;;5074663;28;20497;-86
2022/07/28 10:33:31;;;;;;;2.45;2.00;;;;;;;;;;5074724;28;20451;-85
2022/07/28 10:35:57;;;;;;;2.78;2.00;;;;;;;;;;5074394;28;20429;-85
2022/07/28 10:38:29;;;;;;;2.58;2.03;;;;;;;;;;5074657;28;20384;-85
2022/07/28 10:40:56;;;;;;;2.35;2.15;;;;;;;;;;5074296;28;20383;-85
2022/07/28 10:43:23;;;;;;;2.85;2.33;;;;;;;;;;5074660;28;20390;-85
2022/07/28 10:45:49;;;;;;;4.65;2.08;;;;;;;;;;5074374;28;20384;-85
2022/07/28 10:48:16;;;;;;;2.10;1.95;;;;;;;;;;5074271;28;20376;-85
2022/07/28 10:50:42;;;;;;;2.53;2.13;;;;;;;;;;5074174;28;20379;-85
2022/07/28 10:53:11;;;;;;;2.33;2.22;;;;;;;;;;5055981;28;20412;-85
2022/07/28 10:55:50;;;;;;;2.50;1.88;;;;;;;;;;5072823;28;20384;-85
2022/07/28 10:58:19;;;;;;;2.40;2.10;;;;;;;;;;5074036;28;20380;-83
2022/07/28 11:00:49;;;;;;;2.65;1.92;;;;;;;;;;5074088;28;20394;-86
2022/07/28 11:03:33;;;;;;;2.30;2.10;;;;;;;;;;5073972;28;20411;-85
2022/07/28 11:06:19;;;;;;;3.03;1.90;;;;;;;;;;5074270;28;20391;-85
2022/07/28 11:08:45;;;;;;;4.03;2.22;;;;;;;;;;5072514;28;20387;-85
2022/07/28 11:11:11;;;;;;;3.42;2.30;;;;;;;;;;5074051;28;20391;-86
2022/07/28 11:13:37;;;;;;;2.60;2.40;;;;;;;;;;5070347;28;20493;-85
2022/07/28 11:16:12;;;;;;;3.42;2.50;;;;;;;;;;5063114;28;20467;-85
2022/07/28 11:18:57;;;;;;;3.15;2.53;;;;;;;;;;5073636;28;20386;-85
2022/07/28 11:21:23;;;;;;;4.55;2.22;;;;;;;;;;5073788;28;20863;-85
2022/07/28 11:23:55;;;;;;;3.97;2.40;;;;;;;;;;5073549;28;20429;-85
2022/07/28 11:26:22;;;;;;;2.53;2.00;;;;;;;;;;5073482;28;20402;-85
2022/07/28 11:28:59;;;;;;;2.40;2.20;;;;;;;;;;5073399;28;20852;-84
2022/07/28 11:31:43;;;;;;;4.43;1.90;;;;;;;;;;5073476;28;20393;-85
2022/07/28 11:34:09;;;;;;;2.50;2.03;;;;;;;;;;5073295;28;20441;-85
2022/07/28 11:36:54;;;;;;;2.28;2.08;;;;;;;;;;5073151;28;20493;-85
2022/07/28 11:39:24;;;;;;;2.65;2.30;;;;;;;;;;5073172;28;20841;-84
2022/07/28 11:41:50;;;;;;;2.83;1.90;;;;;;;;;;5073398;28;20384;-85
2022/07/28 11:44:29;;;;;;;3.17;2.15;;;;;;;;;;5059401;28;20503;-85
2022/07/28 11:47:14;;;;;;;2.58;2.20;;;;;;;;;;5055361;28;20370;-85
2022/07/28 11:49:40;;;;;;;2.30;2.10;;;;;;;;;;5067057;28;20864;-86
2022/07/28 11:52:10;;;;;;;2.22;1.98;;;;;;;;;;5056432;28;20381;-86
2022/07/28 11:54:37;;;;;;;2.20;1.70;;;;;;;;;;5067886;28;20452;-86
2022/07/28 11:57:04;;;;;;;2.40;1.88;;;;;;;;;;5072929;28;20444;-87
2022/07/28 11:59:42;;;;;;;2.38;2.03;;;;;;;;;;5072902;28;20376;-86
2022/07/28 12:02:08;;;;;;;2.50;1.88;;;;;;;;;;5073035;28;20388;-86
2022/07/28 12:04:34;;;;;;;5.65;1.92;;;;;;;;;;5072838;28;20517;-87
2022/07/28 12:07:01;;;;;;;2.10;1.85;;;;;;;;;;5058676;28;20463;-87
2022/07/28 12:09:31;;;;;;;2.97;2.08;;;;;;;;;;5072749;28;20383;-85
2022/07/28 12:11:57;;;;;;;2.67;1.75;;;;;;;;;;5072757;28;20368;-85
2022/07/28 12:14:23;;;;;;;2.38;1.80;;;;;;;;;;5071607;28;20396;-86
2022/07/28 12:16:50;;;;;;;2.55;1.80;;;;;;;;;;5072532;28;20376;-86
2022/07/28 12:19:17;;;;;;;3.75;1.77;;;;;;;;;;5072227;28;20372;-87
2022/07/28 12:21:53;;;;;;;2.20;2.00;;;;;;;;;;5072510;28;20430;-86
2022/07/28 12:24:27;;;;;;;1.90;1.80;;;;;;;;;;5072508;28;20376;-86
2022/07/28 12:26:53;;;;;;;2.90;1.95;;;;;;;;;;5071915;28;20384;-87
2022/07/28 12:29:19;;;;;;;3.20;1.90;;;;;;;;;;5067724;28;20419;-86
2022/07/28 12:31:59;;;;;;;2.35;1.80;;;;;;;;;;5072465;28;20449;-86
2022/07/28 12:34:25;;;;;;;2.95;2.15;;;;;;;;;;5072226;28;20399;-86
2022/07/28 12:36:52;;;;;;;4.28;2.30;;;;;;;;;;5072681;28;20741;-86
2022/07/28 12:39:21;;;;;;;2.20;1.90;;;;;;;;;;5067593;28;20373;-86
2022/07/28 12:41:47;;;;;;;2.20;2.00;;;;;;;;;;5054235;28;20381;-86
2022/07/28 12:44:13;;;;;;;2.67;2.00;;;;;;;;;;5065711;28;20459;-86
2022/07/28 12:46:44;;;;;;;2.70;1.98;;;;;;;;;;5058021;28;20925;-87
2022/07/28 12:49:19;;;;;;;3.23;1.90;;;;;;;;;;5066333;28;20400;-86
2022/07/28 12:51:45;;;;;;;2.50;1.98;;;;;;;;;;5070928;28;20406;-86
2022/07/28 12:54:13;;;;;;;2.38;2.10;;;;;;;;;;5063506;28;20439;-87
2022/07/28 12:56:52;;;;;;;3.35;2.28;;;;;;;;;;5072216;28;20793;-85
2022/07/28 12:59:19;;;;;;;2.72;2.10;;;;;;;;;;5053713;28;20421;-85
2022/07/28 13:01:52;;;;;;;3.20;2.10;;;;;;;;;;5052580;28;20768;-87
2022/07/28 13:04:37;;;;;;;3.67;2.17;;;;;;;;;;5051908;28;20722;-86
2022/07/28 13:07:10;;;;;;;5.75;5.32;;;;;;;;;;5050488;28;20382;-86
2022/07/28 13:09:46;;;;;;;2.45;1.90;;;;;;;;;;5060497;28;20439;-87
2022/07/28 13:12:15;;;;;;;2.00;1.90;;;;;;;;;;5050761;28;20413;-86
2022/07/28 13:14:45;;;;;;;3.15;2.42;;;;;;;;;;5039809;28;20374;-86
2022/07/28 13:17:11;;;;;;;3.92;2.40;;;;;;;;;;5069574;28;20856;-86
2022/07/28 13:19:38;;;;;;;2.83;2.10;;;;;;;;;;5071977;28;20430;-87
2022/07/28 13:22:04;;;;;;;3.28;2.28;;;;;;;;;;5071779;28;20375;-86
2022/07/28 13:24:30;;;;;;;2.58;2.38;;;;;;;;;;5059992;28;20482;-85
2022/07/28 13:26:57;;;;;;;2.65;2.28;;;;;;;;;;5066810;28;20868;-87
2022/07/28 13:29:24;;;;;;;2.22;2.10;;;;;;;;;;5056775;28;20757;-86
2022/07/28 13:31:53;;;;;;;2.58;1.90;;;;;;;;;;5054652;28;20377;-86
2022/07/28 13:34:19;;;;;;;2.40;2.20;;;;;;;;;;5075220;28;20521;-86
2022/07/28 13:36:45;;;;;;;2.50;2.33;;;;;;;;;;5068562;28;20729;-86
2022/07/28 13:39:12;;;;;;;3.53;2.60;;;;;;;;;;5070485;28;20421;-85
2022/07/28 13:41:39;;;;;;;4.20;2.33;;;;;;;;;;5067392;28;20382;-87
2022/07/28 13:44:05;;;;;;;3.08;2.30;;;;;;;;;;5067613;28;20413;-86
2022/07/28 13:46:32;;;;;;;3.85;2.30;;;;;;;;;;5069029;28;20413;-87
2022/07/28 13:48:58;;;;;;;2.70;2.20;;;;;;;;;;5057379;28;20395;-87
2022/07/28 13:51:24;;;;;;;3.22;2.53;;;;;;;;;;5070304;28;20389;-86
2022/07/28 13:53:50;;;;;;;2.50;2.30;;;;;;;;;;5074887;28;20760;-86
2022/07/28 13:56:19;;;;;;;2.20;1.92;;;;;;;;;;5061218;28;20401;-86
2022/07/28 14:01:30;;;;;;;3.00;1.95;;;;;;;;;;5073333;28;20929;-87
2022/07/28 14:03:56;;;;;;;2.30;2.08;;;;;;;;;;5055238;28;20469;-87
2022/07/28 14:06:22;;;;;;;2.95;2.33;;;;;;;;;;5057659;28;20543;-87
2022/07/28 14:08:48;;;;;;;3.03;2.10;;;;;;;;;;5072763;28;20748;-87
2022/07/28 14:11:14;;;;;;;4.22;2.20;;;;;;;;;;5060185;28;20385;-86
2022/07/28 14:13:40;;;;;;;4.07;2.10;;;;;;;;;;5060077;28;20745;-87
2022/07/28 14:16:07;;;;;;;3.53;2.20;;;;;;;;;;5068690;28;20461;-86
2022/07/28 14:18:33;;;;;;;2.13;1.92;;;;;;;;;;5072956;28;20867;-86
2022/07/28 14:20:59;;;;;;;2.60;2.17;;;;;;;;;;5062860;28;20872;-88
2022/07/28 14:23:25;;;;;;;3.53;2.22;;;;;;;;;;5074842;28;20798;-87
2022/07/28 14:25:51;;;;;;;2.22;2.03;;;;;;;;;;5074982;28;20383;-89
2022/07/28 14:28:17;;;;;;;2.40;2.13;;;;;;;;;;5066686;28;20382;-89
2022/07/28 14:30:43;;;;;;;3.60;2.23;;;;;;;;;;5088321;28;20388;-87
2022/07/28 14:33:09;;;;;;;2.30;2.00;;;;;;;;;;5073424;28;20400;-85
2022/07/28 14:35:35;;;;;;;3.03;2.20;;;;;;;;;;5074405;28;20422;-86
2022/07/28 14:38:04;;;;;;;2.20;2.00;;;;;;;;;;5074466;28;20396;-86
2022/07/28 14:40:30;;;;;;;3.35;1.80;;;;;;;;;;5065250;28;20415;-85
2022/07/28 14:42:56;;;;;;;3.15;2.17;;;;;;;;;;5066118;28;20415;-84
2022/07/28 14:45:22;;;;;;;2.33;2.00;;;;;;;;;;5074391;28;20423;-84
2022/07/28 14:47:49;;;;;;;3.15;2.13;;;;;;;;;;5063701;28;20385;-84
2022/07/28 14:50:15;;;;;;;2.72;2.13;;;;;;;;;;5057309;28;20407;-85
2022/07/28 14:52:41;;;;;;;2.80;2.03;;;;;;;;;;5067297;28;20453;-85